createdAt,value
2018-07-26T00:00:06.608Z,20.20
2018-07-26T00:02:33.650Z,18.73
2018-07-26T00:05:00.698Z,20.02
2018-07-26T00:07:27.754Z,19.42
2018-07-26T00:09:54.798Z,18.95
2018-07-26T00:12:21.846Z,19.55
2018-07-26T00:14:48.903Z,19.67
2018-07-26T00:17:15.941Z,19.33
2018-07-26T00:19:42.991Z,19.77
2018-07-26T00:22:10.048Z,17.92
2018-07-26T00:24:37.088Z,19.33
2018-07-26T00:27:04.137Z,18.83
2018-07-26T00:29:31.191Z,17.30
2018-07-26T00:31:58.236Z,19.25
2018-07-26T00:34:25.206Z,17.37
2018-07-26T00:36:56.838Z,18.45
2018-07-26T00:39:23.889Z,17.90
2018-07-26T00:41:51.554Z,19.70
2018-07-26T00:44:18.597Z,18.95
2018-07-26T00:46:45.650Z,17.70
2018-07-26T00:49:12.703Z,19.00
2018-07-26T00:51:39.743Z,19.23
2018-07-26T00:54:06.791Z,18.37
2018-07-26T00:56:33.848Z,17.92
2018-07-26T00:59:00.895Z,18.00
2018-07-26T01:01:27.938Z,18.70
2018-07-26T01:03:55.914Z,18.05
2018-07-26T01:06:22.956Z,19.05
2018-07-26T01:08:49.953Z,17.25
2018-07-26T01:11:16.951Z,18.23
2018-07-26T01:13:45.023Z,18.25
2018-07-26T01:16:12.070Z,18.42
2018-07-26T01:18:39.125Z,18.35
2018-07-26T01:21:06.169Z,18.17
2018-07-26T01:23:33.428Z,18.48
2018-07-26T01:26:00.473Z,19.20
2018-07-26T01:28:27.519Z,16.65
2018-07-26T01:30:56.206Z,17.62
2018-07-26T01:33:23.260Z,18.27
2018-07-26T01:35:50.201Z,16.90
2018-07-26T01:38:17.254Z,16.92
2018-07-26T01:40:44.299Z,16.58
2018-07-26T01:43:13.292Z,16.17
2018-07-26T01:45:40.342Z,15.88
2018-07-26T01:48:07.398Z,16.80
2018-07-26T01:50:34.439Z,16.33
2018-07-26T01:53:01.445Z,15.13
2018-07-26T01:55:28.434Z,16.02
2018-07-26T01:57:55.385Z,14.38
2018-07-26T02:00:22.427Z,14.23
2018-07-26T02:02:49.428Z,13.57
2018-07-26T02:05:23.291Z,14.45
2018-07-26T02:07:50.283Z,15.15
2018-07-26T02:10:17.382Z,14.43
2018-07-26T02:12:46.284Z,14.45
2018-07-26T02:15:13.322Z,14.77
2018-07-26T02:17:40.371Z,14.93
2018-07-26T02:20:08.287Z,14.63
2018-07-26T02:22:46.715Z,14.32
2018-07-26T02:27:54.991Z,14.60
2018-07-26T02:30:25.465Z,14.60
2018-07-26T02:32:52.462Z,14.80
2018-07-26T02:35:19.515Z,15.25
2018-07-26T02:37:46.558Z,15.32
2018-07-26T02:40:13.606Z,14.63
2018-07-26T02:42:40.661Z,14.60
2018-07-26T02:45:07.705Z,14.50
2018-07-26T02:47:34.753Z,14.30
2018-07-26T02:50:01.703Z,13.65
2018-07-26T02:52:28.850Z,13.98
2018-07-26T02:54:56.821Z,13.35
2018-07-26T02:57:23.875Z,13.35
2018-07-26T02:59:50.917Z,14.60
2018-07-26T03:02:17.966Z,14.27
2018-07-26T03:04:45.022Z,14.00
2018-07-26T03:07:13.835Z,14.60
2018-07-26T03:09:41.412Z,14.27
2018-07-26T03:12:08.415Z,14.68
2018-07-26T03:14:35.468Z,14.87
2018-07-26T03:17:02.513Z,14.23
2018-07-26T03:19:29.559Z,14.65
2018-07-26T03:21:56.617Z,14.20
2018-07-26T03:24:23.656Z,15.00
2018-07-26T03:26:50.607Z,14.02
2018-07-26T03:29:17.652Z,15.15
2018-07-26T03:31:45.113Z,15.00
2018-07-26T03:34:12.163Z,15.13
2018-07-26T03:36:39.214Z,15.32
2018-07-26T03:39:06.252Z,14.63
2018-07-26T03:41:33.311Z,15.05
2018-07-26T03:44:00.460Z,15.30
2018-07-26T03:46:27.512Z,15.07
2018-07-26T03:48:56.134Z,14.85
2018-07-26T03:51:23.190Z,14.43
2018-07-26T03:53:50.196Z,13.27
2018-07-26T03:56:17.235Z,13.88
2018-07-26T03:58:44.286Z,13.80
2018-07-26T04:01:11.337Z,14.20
2018-07-26T04:03:38.380Z,13.75
2018-07-26T04:06:05.331Z,14.55
2018-07-26T04:08:32.375Z,13.15
2018-07-26T04:10:59.425Z,13.48
2018-07-26T04:13:26.785Z,13.30
2018-07-26T04:15:53.832Z,13.38
2018-07-26T04:18:20.875Z,14.52
2018-07-26T04:20:47.932Z,13.90
2018-07-26T04:23:14.973Z,15.80
2018-07-26T04:25:41.929Z,14.35
2018-07-26T04:28:08.969Z,13.98
2018-07-26T04:30:36.018Z,13.38
2018-07-26T04:33:03.071Z,14.15
2018-07-26T04:35:31.653Z,13.73
2018-07-26T04:37:59.417Z,13.40
2018-07-26T04:40:26.465Z,14.68
2018-07-26T04:42:54.787Z,13.52
2018-07-26T04:45:22.515Z,13.13
2018-07-26T04:47:49.556Z,13.60
2018-07-26T04:50:17.527Z,13.15
2018-07-26T04:52:45.861Z,13.05
2018-07-26T04:55:14.395Z,12.18
2018-07-26T04:57:42.360Z,12.27
2018-07-26T05:00:15.453Z,11.68
2018-07-26T05:02:46.492Z,12.50
2018-07-26T05:05:13.854Z,12.37
2018-07-26T05:07:40.897Z,11.70
2018-07-26T05:10:07.944Z,11.43
2018-07-26T05:12:35.307Z,11.07
2018-07-26T05:15:02.349Z,10.93
2018-07-26T05:17:29.397Z,10.82
2018-07-26T05:19:56.758Z,11.52
2018-07-26T05:22:23.803Z,10.75
2018-07-26T05:24:50.852Z,11.10
2018-07-26T05:27:17.904Z,10.88
2018-07-26T05:29:44.892Z,10.90
2018-07-26T05:32:11.998Z,11.40
2018-07-26T05:34:40.173Z,11.25
2018-07-26T05:37:07.222Z,10.25
2018-07-26T05:39:34.274Z,9.75
2018-07-26T05:42:01.318Z,10.70
2018-07-26T05:44:28.366Z,10.40
2018-07-26T05:46:55.420Z,10.40
2018-07-26T05:49:22.469Z,10.77
2018-07-26T05:51:49.511Z,10.60
2018-07-26T05:54:16.565Z,9.82
2018-07-26T05:56:43.610Z,9.57
2018-07-26T06:01:52.043Z,7.55
2018-07-26T06:04:19.092Z,6.78
2018-07-26T06:06:48.341Z,7.12
2018-07-26T06:09:16.464Z,8.35
2018-07-26T06:11:43.520Z,7.87
2018-07-26T06:14:10.508Z,7.37
2018-07-26T06:16:37.515Z,8.77
2018-07-26T06:19:04.763Z,7.00
2018-07-26T06:21:31.823Z,7.50
2018-07-26T06:23:58.862Z,8.00
2018-07-26T06:26:25.913Z,7.50
2018-07-26T06:28:52.963Z,7.07
2018-07-26T06:31:20.011Z,7.50
2018-07-26T06:33:46.997Z,7.65
2018-07-26T06:36:14.003Z,7.28
2018-07-26T06:38:41.054Z,7.78
2018-07-26T06:41:08.303Z,8.77
2018-07-26T06:43:35.869Z,8.88
2018-07-26T06:46:02.912Z,7.57
2018-07-26T06:48:29.960Z,7.97
2018-07-26T06:50:57.112Z,8.00
2018-07-26T06:53:24.673Z,8.52
2018-07-26T06:55:51.720Z,9.30
2018-07-26T06:58:18.775Z,8.98
2018-07-26T07:00:45.720Z,8.20
2018-07-26T07:03:12.662Z,8.70
2018-07-26T07:05:39.712Z,9.18
2018-07-26T07:08:06.862Z,8.98
2018-07-26T07:10:33.916Z,9.00
2018-07-26T07:13:01.266Z,9.68
2018-07-26T07:15:28.315Z,9.05
2018-07-26T07:17:55.676Z,9.13
2018-07-26T07:20:22.746Z,9.00
2018-07-26T07:22:49.770Z,7.93
2018-07-26T07:25:16.822Z,9.13
2018-07-26T07:27:43.931Z,9.27
2018-07-26T07:30:10.913Z,9.18
2018-07-26T07:32:37.966Z,9.75
2018-07-26T07:35:05.011Z,9.25
2018-07-26T07:37:32.059Z,8.52
2018-07-26T07:39:59.057Z,9.02
2018-07-26T07:42:26.053Z,8.13
2018-07-26T07:44:53.002Z,8.70
2018-07-26T07:47:20.126Z,8.73
2018-07-26T07:49:47.101Z,8.68
2018-07-26T07:52:14.146Z,7.65
2018-07-26T07:54:41.195Z,7.60
2018-07-26T07:57:08.396Z,7.87
2018-07-26T07:59:35.557Z,8.43
2018-07-26T08:02:02.647Z,8.10
2018-07-26T08:04:29.709Z,8.52
2018-07-26T08:06:56.746Z,7.15
2018-07-26T08:09:23.794Z,7.12
2018-07-26T08:11:51.050Z,6.87
2018-07-26T08:14:18.095Z,5.12
2018-07-26T08:16:45.349Z,5.82
2018-07-26T08:19:12.396Z,5.57
2018-07-26T08:21:41.650Z,5.65
2018-07-26T08:24:08.644Z,5.05
2018-07-26T08:26:36.564Z,4.90
2018-07-26T08:29:03.766Z,4.47
2018-07-26T08:31:30.820Z,4.47
2018-07-26T08:33:57.863Z,4.95
2018-07-26T08:36:24.912Z,4.12
2018-07-26T08:38:52.064Z,5.20
2018-07-26T08:41:19.116Z,5.80
2018-07-26T08:43:46.184Z,5.93
2018-07-26T08:46:13.311Z,4.95
2018-07-26T08:48:40.569Z,4.32
2018-07-26T08:51:07.612Z,4.90
2018-07-26T08:53:34.665Z,4.40
2018-07-26T08:56:02.330Z,4.80
2018-07-26T08:58:29.373Z,6.00
2018-07-26T09:00:56.425Z,5.47
2018-07-26T09:03:23.475Z,5.90
2018-07-26T09:05:50.522Z,6.15
2018-07-26T09:08:17.567Z,5.50
2018-07-26T09:10:44.641Z,5.03
2018-07-26T09:13:11.666Z,5.40
2018-07-26T09:15:38.716Z,5.00
2018-07-26T09:18:05.767Z,4.62
2018-07-26T09:20:32.826Z,5.72
2018-07-26T09:22:59.965Z,4.93
2018-07-26T09:25:27.013Z,5.20
2018-07-26T09:27:54.681Z,5.18
2018-07-26T09:30:22.138Z,5.10
2018-07-26T09:32:49.188Z,5.28
2018-07-26T09:35:16.228Z,4.90
2018-07-26T09:37:43.378Z,5.28
2018-07-26T09:40:10.529Z,5.10
2018-07-26T09:42:37.684Z,5.00
2018-07-26T09:45:04.735Z,5.10
2018-07-26T09:47:31.778Z,5.25
2018-07-26T09:49:58.829Z,4.87
2018-07-26T09:52:25.882Z,4.70
2018-07-26T09:54:52.843Z,4.60
2018-07-26T09:57:19.875Z,4.72
2018-07-26T09:59:46.920Z,4.57
2018-07-26T10:02:13.969Z,4.68
2018-07-26T10:04:41.022Z,4.70
2018-07-26T10:07:08.065Z,4.65
2018-07-26T10:09:36.246Z,3.80
2018-07-26T10:12:03.288Z,4.55
2018-07-26T10:14:30.338Z,4.55
2018-07-26T10:16:58.456Z,4.40
2018-07-26T10:19:25.488Z,4.10
2018-07-26T10:21:52.507Z,3.85
2018-07-26T10:24:20.272Z,3.50
2018-07-26T10:26:47.423Z,3.30
2018-07-26T10:29:14.472Z,3.53
2018-07-26T10:31:41.876Z,3.33
2018-07-26T10:34:08.817Z,3.20
2018-07-26T10:36:35.924Z,3.50
2018-07-26T10:39:03.433Z,3.20
2018-07-26T10:41:30.443Z,3.35
2018-07-26T10:43:57.426Z,3.58
2018-07-26T10:46:25.142Z,3.20
2018-07-26T10:48:52.196Z,3.22
2018-07-26T10:51:19.238Z,3.22
2018-07-26T10:53:46.287Z,3.30
2018-07-26T10:56:13.340Z,2.78
2018-07-26T10:58:40.385Z,3.10
2018-07-26T11:01:07.432Z,3.37
2018-07-26T11:03:34.422Z,3.58
2018-07-26T11:06:01.429Z,3.20
2018-07-26T11:08:28.481Z,3.40
2018-07-26T11:10:55.524Z,3.12
2018-07-26T11:13:22.475Z,3.10
2018-07-26T11:15:49.629Z,3.12
2018-07-26T11:18:16.671Z,3.12
2018-07-26T11:20:43.719Z,3.42
2018-07-26T11:23:10.869Z,3.10
2018-07-26T11:25:37.930Z,3.03
2018-07-26T11:28:04.967Z,3.15
2018-07-26T11:30:32.117Z,2.87
2018-07-26T11:32:59.267Z,3.20
2018-07-26T11:35:26.315Z,3.45
2018-07-26T11:37:53.417Z,3.00
2018-07-26T11:40:20.412Z,3.00
2018-07-26T11:42:47.462Z,3.00
2018-07-26T11:45:14.549Z,3.00
2018-07-26T11:47:45.245Z,2.90
2018-07-26T11:50:12.331Z,3.58
2018-07-26T11:52:39.390Z,3.05
2018-07-26T11:55:06.389Z,3.10
2018-07-26T11:57:33.438Z,3.45
2018-07-26T12:00:00.383Z,3.30
2018-07-26T12:05:09.025Z,2.85
2018-07-26T12:07:39.307Z,3.10
2018-07-26T12:10:06.498Z,3.53
2018-07-26T12:12:33.448Z,3.67
2018-07-26T12:15:00.493Z,3.45
2018-07-26T12:17:27.494Z,3.87
2018-07-26T12:19:54.492Z,3.45
2018-07-26T12:22:21.535Z,3.50
2018-07-26T12:24:48.589Z,4.12
2018-07-26T12:27:15.638Z,3.65
2018-07-26T12:29:42.784Z,3.60
2018-07-26T12:32:09.835Z,4.00
2018-07-26T12:34:36.982Z,4.00
2018-07-26T12:37:06.021Z,3.97
2018-07-26T12:39:33.029Z,4.07
2018-07-26T12:42:00.381Z,4.60
2018-07-26T12:44:28.254Z,4.32
2018-07-26T12:46:55.603Z,3.70
2018-07-26T12:49:22.652Z,3.90
2018-07-26T12:51:49.598Z,3.62
2018-07-26T12:54:16.647Z,4.03
2018-07-26T12:56:44.104Z,3.62
2018-07-26T12:59:11.358Z,3.12
2018-07-26T13:01:38.443Z,3.40
2018-07-26T13:04:06.581Z,3.70
2018-07-26T13:06:33.630Z,3.80
2018-07-26T13:09:00.684Z,3.70
2018-07-26T13:11:27.624Z,3.33
2018-07-26T13:13:54.677Z,3.33
2018-07-26T13:16:21.720Z,3.70
2018-07-26T13:18:48.871Z,3.90
2018-07-26T13:21:15.830Z,3.75
2018-07-26T13:23:42.973Z,3.75
2018-07-26T13:26:10.026Z,3.60
2018-07-26T13:28:37.066Z,3.58
2018-07-26T13:31:04.119Z,3.58
2018-07-26T13:33:31.163Z,3.30
2018-07-26T13:35:58.312Z,3.08
2018-07-26T13:38:25.264Z,3.30
2018-07-26T13:40:52.307Z,3.70
2018-07-26T13:43:19.355Z,4.32
2018-07-26T13:45:46.410Z,4.05
2018-07-26T13:48:13.454Z,4.00
2018-07-26T13:50:41.633Z,4.15
2018-07-26T13:53:08.690Z,3.87
2018-07-26T13:55:35.724Z,3.37
2018-07-26T13:58:03.086Z,3.67
2018-07-26T14:00:30.129Z,3.85
2018-07-26T14:02:57.178Z,3.55
2018-07-26T14:05:25.154Z,3.50
2018-07-26T14:07:52.197Z,3.20
2018-07-26T14:10:19.244Z,3.08
2018-07-26T14:12:46.607Z,3.00
2018-07-26T14:15:13.802Z,3.35
2018-07-26T14:17:40.800Z,3.22
2018-07-26T14:20:08.259Z,3.15
2018-07-26T14:22:35.308Z,3.50
2018-07-26T14:25:02.362Z,3.42
2018-07-26T14:27:29.403Z,3.40
2018-07-26T14:29:56.452Z,3.28
2018-07-26T14:32:23.506Z,3.58
2018-07-26T14:34:50.548Z,3.70
2018-07-26T14:37:17.597Z,3.87
2018-07-26T14:39:44.650Z,3.78
2018-07-26T14:42:11.593Z,3.65
2018-07-26T14:44:38.647Z,3.97
2018-07-26T14:47:05.690Z,4.28
2018-07-26T14:49:32.738Z,5.30
2018-07-26T14:52:02.200Z,5.90
2018-07-26T14:54:29.338Z,5.20
2018-07-26T14:56:56.342Z,5.57
2018-07-26T14:59:23.398Z,4.60
2018-07-26T15:02:01.298Z,4.90
2018-07-26T15:04:29.618Z,4.93
2018-07-26T15:10:01.767Z,5.50
2018-07-26T15:12:29.121Z,5.00
2018-07-26T15:14:57.194Z,4.72
2018-07-26T15:17:26.276Z,4.53
2018-07-26T15:26:01.982Z,5.18
2018-07-26T15:28:28.933Z,5.00
2018-07-26T15:31:04.166Z,4.62
2018-07-26T15:33:31.221Z,4.85
2018-07-26T15:36:27.554Z,4.60
2018-07-26T15:39:24.076Z,4.80
2018-07-26T15:44:47.214Z,4.78
2018-07-26T15:47:32.686Z,4.37
2018-07-26T16:07:32.385Z,4.43
2018-07-26T16:10:09.982Z,4.47
2018-07-26T16:12:38.358Z,4.32
2018-07-26T16:15:06.949Z,4.37
2018-07-26T16:17:34.064Z,4.22
2018-07-26T16:20:01.042Z,4.20
2018-07-26T16:22:28.112Z,4.25
2018-07-26T16:24:55.144Z,4.12
2018-07-26T16:27:22.514Z,4.20
2018-07-26T16:29:49.952Z,4.47
2018-07-26T16:32:17.010Z,4.80
2018-07-26T16:34:44.157Z,4.47
2018-07-26T16:37:11.404Z,4.47
2018-07-26T16:39:38.458Z,4.22
2018-07-26T16:42:05.610Z,4.25
2018-07-26T16:44:32.857Z,4.32
2018-07-26T16:49:41.811Z,4.50
2018-07-26T16:52:08.893Z,4.30
2018-07-26T16:54:35.836Z,4.32
2018-07-26T16:57:03.718Z,4.62
2018-07-26T16:59:30.817Z,4.72
2018-07-26T17:01:58.833Z,4.32
2018-07-26T17:04:25.834Z,4.68
2018-07-26T17:06:52.883Z,4.37
2018-07-26T17:09:19.939Z,4.50
2018-07-26T17:11:47.087Z,4.65
2018-07-26T17:14:15.355Z,4.85
2018-07-26T17:16:42.819Z,4.40
2018-07-26T17:19:09.928Z,4.47
2018-07-26T17:21:37.631Z,5.10
2018-07-26T17:24:17.481Z,4.35
2018-07-26T17:26:44.531Z,4.68
2018-07-26T17:29:11.690Z,4.62
2018-07-26T17:31:39.856Z,4.40
2018-07-26T17:34:06.904Z,4.70
2018-07-26T17:36:33.959Z,4.43
2018-07-26T17:39:01.417Z,4.37
2018-07-26T17:41:29.032Z,4.68
2018-07-26T17:43:56.027Z,4.80
2018-07-26T17:46:23.177Z,4.37
2018-07-26T17:48:50.223Z,4.53
2018-07-26T17:51:17.677Z,4.65
2018-07-26T17:53:44.725Z,4.50
2018-07-26T17:56:11.881Z,4.55
2018-07-26T17:58:38.931Z,4.22
2018-07-26T18:01:06.282Z,5.00
2018-07-26T18:03:33.740Z,4.55
2018-07-26T18:06:02.048Z,4.55
2018-07-26T18:08:29.117Z,4.07
2018-07-26T18:10:56.116Z,4.70
2018-07-26T18:13:23.167Z,5.00
2018-07-26T18:15:58.102Z,5.10
2018-07-26T18:18:25.661Z,4.72
2018-07-26T18:20:52.816Z,5.00
2018-07-26T18:23:20.314Z,4.60
2018-07-26T18:25:47.316Z,4.78
2018-07-26T18:28:15.240Z,4.57
2018-07-26T18:30:42.273Z,4.47
2018-07-26T18:33:10.303Z,4.72
2018-07-26T18:35:37.354Z,5.00
2018-07-26T18:38:04.745Z,4.90
2018-07-26T18:40:31.864Z,4.62
2018-07-26T18:42:58.907Z,4.53
2018-07-26T18:45:26.166Z,4.53
2018-07-26T18:48:13.303Z,5.12
2018-07-26T18:50:40.648Z,5.37
2018-07-26T18:53:08.450Z,5.50
2018-07-26T18:55:37.041Z,5.37
2018-07-26T18:58:05.474Z,5.10
2018-07-26T19:00:32.798Z,5.62
2018-07-26T19:03:08.873Z,4.87
2018-07-26T19:05:40.560Z,5.00
2018-07-26T19:08:07.887Z,5.20
2018-07-26T19:10:39.226Z,4.72
2018-07-26T19:13:07.559Z,4.97
2018-07-26T19:15:36.247Z,4.57
2018-07-26T19:18:04.779Z,5.12
2018-07-26T19:20:35.312Z,4.93
2018-07-26T19:23:04.411Z,4.87
2018-07-26T19:25:31.662Z,4.90
2018-07-26T19:27:59.569Z,5.03
2018-07-26T19:30:27.425Z,5.10
2018-07-26T19:32:58.045Z,5.40
2018-07-26T19:35:25.292Z,5.30
2018-07-26T19:37:52.331Z,5.75
2018-07-26T19:40:19.701Z,4.97
2018-07-26T19:42:46.763Z,5.07
2018-07-26T19:45:13.783Z,5.05
2018-07-26T19:47:40.730Z,5.50
2018-07-26T19:50:10.286Z,5.43
2018-07-26T19:52:38.665Z,5.60
2018-07-26T19:55:05.869Z,5.57
2018-07-26T19:57:33.203Z,5.35
2018-07-26T20:00:01.137Z,4.65
2018-07-26T20:02:29.580Z,4.80
2018-07-26T20:04:56.623Z,4.68
2018-07-26T20:07:23.671Z,5.25
2018-07-26T20:09:52.608Z,5.07
2018-07-26T20:12:19.960Z,4.72
2018-07-26T20:14:47.221Z,4.65
2018-07-26T20:17:16.373Z,6.07
2018-07-26T20:19:44.846Z,6.00
2018-07-26T20:22:13.793Z,5.87
2018-07-26T20:24:41.102Z,4.93
2018-07-26T20:27:08.398Z,5.78
2018-07-26T20:29:36.668Z,5.25
2018-07-26T20:32:03.624Z,5.57
2018-07-26T20:34:30.754Z,6.05
2018-07-26T20:36:59.966Z,6.15
2018-07-26T20:39:28.142Z,6.05
2018-07-26T20:41:56.211Z,5.62
2018-07-26T20:44:23.435Z,5.78
2018-07-26T20:46:50.482Z,5.68
2018-07-26T20:49:17.527Z,5.93
2018-07-26T20:51:44.581Z,5.45
2018-07-26T20:54:11.567Z,5.53
2018-07-26T20:56:38.576Z,5.80
2018-07-26T20:59:05.618Z,5.90
2018-07-26T21:01:32.667Z,6.65
2018-07-26T21:03:59.721Z,6.22
2018-07-26T21:06:26.764Z,8.50
2018-07-26T21:08:53.917Z,9.18
2018-07-26T21:11:22.030Z,7.43
2018-07-26T21:13:49.346Z,10.10
2018-07-26T21:16:16.598Z,11.18
2018-07-26T21:18:43.647Z,10.77
2018-07-26T21:21:10.701Z,9.00
2018-07-26T21:23:37.743Z,8.52
2018-07-26T21:26:04.793Z,8.88
2018-07-26T21:28:31.944Z,8.95
2018-07-26T21:30:59.401Z,8.52
2018-07-26T21:33:26.501Z,8.57
2018-07-26T21:35:54.939Z,9.05
2018-07-26T21:38:22.083Z,8.73
2018-07-26T21:40:50.098Z,10.25
2018-07-26T21:43:17.211Z,10.20
2018-07-26T21:45:44.253Z,9.00
2018-07-26T21:48:11.303Z,9.45
2018-07-26T21:50:38.356Z,8.20
2018-07-26T21:53:05.403Z,8.30
2018-07-26T21:55:32.469Z,7.70
2018-07-26T21:57:59.504Z,7.53
2018-07-26T22:00:29.055Z,7.68
2018-07-26T22:02:56.102Z,7.62
2018-07-26T22:05:23.252Z,7.82
2018-07-26T22:07:50.257Z,8.00
2018-07-26T22:10:18.042Z,7.07
2018-07-26T22:12:45.793Z,7.30
2018-07-26T22:15:13.096Z,7.07
2018-07-26T22:17:40.091Z,7.30
2018-07-26T22:20:07.134Z,7.30
2018-07-26T22:22:34.490Z,7.75
2018-07-26T22:25:01.435Z,7.40
2018-07-26T22:27:28.484Z,7.28
2018-07-26T22:29:57.580Z,7.47
2018-07-26T22:32:24.632Z,7.32
2018-07-26T22:34:51.683Z,7.12
2018-07-26T22:37:19.034Z,6.82
2018-07-26T22:39:46.081Z,6.90
2018-07-26T22:42:13.136Z,6.93
2018-07-26T22:44:40.077Z,6.80
2018-07-26T22:47:07.227Z,7.18
2018-07-26T22:49:34.282Z,6.50
2018-07-26T22:52:02.246Z,6.53
2018-07-26T22:54:29.337Z,7.03
2018-07-26T22:56:56.349Z,6.70
2018-07-26T22:59:23.392Z,7.87
2018-07-26T23:01:50.379Z,6.57
2018-07-26T23:04:17.387Z,6.28
2018-07-26T23:06:44.435Z,6.43
2018-07-26T23:09:11.383Z,7.25
2018-07-26T23:11:38.432Z,6.93
2018-07-26T23:14:05.425Z,6.57
2018-07-26T23:16:32.425Z,8.43
2018-07-26T23:18:59.480Z,7.62
2018-07-26T23:21:26.522Z,7.32
2018-07-26T23:23:53.571Z,7.90
2018-07-26T23:26:20.625Z,8.30
2018-07-26T23:28:47.669Z,7.70
2018-07-26T23:31:14.717Z,8.25
2018-07-26T23:33:41.771Z,8.00
2018-07-26T23:36:08.814Z,7.70
2018-07-26T23:38:35.862Z,8.98
2018-07-26T23:41:02.919Z,9.80
2018-07-26T23:43:29.960Z,8.60
2018-07-26T23:45:57.008Z,9.50
2018-07-26T23:48:24.061Z,10.02
2018-07-26T23:50:51.108Z,10.15
2018-07-26T23:53:19.329Z,8.57
2018-07-26T23:55:46.314Z,8.45
2018-07-26T23:58:13.588Z,9.23
